Henderson, Nevada
Current Conditions -  °F | °C
As of 12:15 PM on Friday 21 Nov 2014 (Local Time) from KBVU Reporting Station
Clear Clear  
Wind Chill: 19°   Ceiling: Unl
Heat Index: 19°   Visibility: 10mi
Dew Point: -6°   Wind: 6mph
Humidity: 18%   Direction: 40°NE
Pressure: 29.96"   Gusts: NA
Location:  36.03°N, 114.98°W
Report Text: KBVU 212015Z AUTO 04005KT 10SM CLR 19/M06 A2996 RMK AO2
Loading
Personal Weather Stations






























Interactive Weather Map New forecast layout! Learn more

10-Day Weather Forecast

Advertisements
Track Severe Weather on mobile